createdAt,value
2023-11-08T00:00:26.431Z,98255.78
2023-11-08T00:02:53.037Z,98249.63
2023-11-08T00:05:19.585Z,98252.25
2023-11-08T00:07:46.101Z,98252.25
2023-11-08T00:10:13.876Z,98252.25
2023-11-08T00:12:41.416Z,98247.88
2023-11-08T00:15:09.718Z,98258.41
2023-11-08T00:17:40.001Z,98259.28
2023-11-08T00:20:12.227Z,98254.88
2023-11-08T00:22:39.331Z,98245.19
2023-11-08T00:25:06.421Z,98244.31
2023-11-08T00:27:33.207Z,98247.88
2023-11-08T00:29:59.976Z,98248.75
2023-11-08T00:32:26.612Z,98251.41
2023-11-08T00:34:53.161Z,98247.88
2023-11-08T00:37:19.877Z,98244.38
2023-11-08T00:39:46.523Z,98258.44
2023-11-08T00:42:13.033Z,98247.91
2023-11-08T00:44:39.661Z,98247.00
2023-11-08T00:47:06.216Z,98247.88
2023-11-08T00:49:32.736Z,98240.84
2023-11-08T00:52:01.300Z,98246.13
2023-11-08T00:54:28.450Z,98244.34
2023-11-08T00:56:55.162Z,98248.75
2023-11-08T00:59:22.159Z,98242.59
2023-11-08T01:01:49.093Z,98254.91
2023-11-08T01:04:15.774Z,98243.47
2023-11-08T01:06:42.485Z,98250.50
2023-11-08T01:09:10.508Z,98237.31
2023-11-08T01:11:37.280Z,98240.81
2023-11-08T01:14:06.029Z,98237.28
2023-11-08T01:16:33.100Z,98244.34
2023-11-08T01:18:59.688Z,98225.88
2023-11-08T01:21:26.416Z,98228.53
2023-11-08T01:23:52.920Z,98232.94
2023-11-08T01:26:19.398Z,98225.91
2023-11-08T01:28:48.813Z,98224.16
2023-11-08T01:31:15.323Z,98233.81
2023-11-08T01:33:41.987Z,98221.53
2023-11-08T01:36:10.111Z,98228.56
2023-11-08T01:38:37.123Z,98222.41
2023-11-08T01:41:03.776Z,98225.91
2023-11-08T01:43:34.948Z,98232.97
2023-11-08T01:46:24.604Z,98229.44
2023-11-08T01:48:56.239Z,98236.47
2023-11-08T01:51:23.448Z,98226.81
2023-11-08T01:53:52.890Z,98226.81
2023-11-08T01:56:20.269Z,98226.81
2023-11-08T01:58:48.671Z,98231.19
2023-11-08T02:01:18.392Z,98235.59
2023-11-08T02:03:45.757Z,98239.09
2023-11-08T02:06:14.523Z,98230.28
2023-11-08T02:08:42.095Z,98225.91
2023-11-08T02:11:09.753Z,98225.06
2023-11-08T02:13:36.376Z,98233.84
2023-11-08T02:16:03.591Z,98236.50
2023-11-08T02:18:32.488Z,98240.00
2023-11-08T02:21:02.994Z,98237.34
2023-11-08T02:23:31.925Z,98233.81
2023-11-08T02:25:58.650Z,98237.34
2023-11-08T02:28:25.225Z,98232.09
2023-11-08T02:30:55.316Z,98221.56
2023-11-08T02:33:23.323Z,98230.31
2023-11-08T02:35:49.837Z,98223.31
2023-11-08T02:38:16.728Z,98219.78
2023-11-08T02:40:43.642Z,98221.53
2023-11-08T02:43:11.217Z,98229.47
2023-11-08T02:45:38.193Z,98233.84
2023-11-08T02:48:07.057Z,98233.88
2023-11-08T02:50:34.818Z,98232.97
2023-11-08T02:53:01.541Z,98238.25
2023-11-08T02:55:28.491Z,98231.22
2023-11-08T02:57:55.698Z,98220.69
2023-11-08T03:00:22.433Z,98217.16
2023-11-08T03:02:49.188Z,98236.47
2023-11-08T03:05:22.532Z,98236.47
2023-11-08T03:07:53.942Z,98244.38
2023-11-08T03:10:23.565Z,98240.88
2023-11-08T03:12:52.105Z,98239.16
2023-11-08T03:15:19.212Z,98228.59
2023-11-08T03:17:47.192Z,98222.44
2023-11-08T03:20:14.828Z,98230.34
2023-11-08T03:22:41.888Z,98227.72
2023-11-08T03:25:12.802Z,98234.75
2023-11-08T03:27:43.036Z,98243.53
2023-11-08T03:30:15.302Z,98243.53
2023-11-08T03:32:42.711Z,98230.31
2023-11-08T03:35:10.451Z,98235.59
2023-11-08T03:37:41.239Z,98237.38
2023-11-08T03:40:13.371Z,98230.31
2023-11-08T03:42:41.340Z,98236.50
2023-11-08T03:45:09.302Z,98245.28
2023-11-08T03:47:37.441Z,98242.66
2023-11-08T03:50:04.706Z,98239.13
2023-11-08T03:52:31.592Z,98237.38
2023-11-08T03:54:59.079Z,98238.25
2023-11-08T03:57:25.701Z,98232.97
2023-11-08T03:59:52.377Z,98235.59
2023-11-08T04:02:19.198Z,98247.03
2023-11-08T04:04:46.578Z,98258.44
2023-11-08T04:07:14.122Z,98258.44
2023-11-08T04:09:44.935Z,98259.31
2023-11-08T04:12:12.458Z,98249.66
2023-11-08T04:14:39.788Z,98246.16
2023-11-08T04:17:09.733Z,98255.81
2023-11-08T04:19:37.672Z,98254.94
2023-11-08T04:22:06.288Z,98248.81
2023-11-08T04:24:33.645Z,98250.56
2023-11-08T04:27:00.519Z,98247.91
2023-11-08T04:29:27.025Z,98255.84
2023-11-08T04:31:53.792Z,98263.72
2023-11-08T04:34:20.449Z,98265.47
2023-11-08T04:36:47.107Z,98262.81
2023-11-08T04:39:17.082Z,98262.81
2023-11-08T04:41:46.099Z,98264.59
2023-11-08T04:44:13.166Z,98262.84
2023-11-08T04:46:42.934Z,98271.63
2023-11-08T04:49:10.364Z,98273.38
2023-11-08T04:51:37.103Z,98275.13
2023-11-08T04:54:03.985Z,98269.84
2023-11-08T04:56:30.490Z,98274.25
2023-11-08T04:58:57.036Z,98283.94
2023-11-08T05:01:23.977Z,98278.66
2023-11-08T05:03:50.573Z,98285.72
2023-11-08T05:06:17.193Z,98291.84
2023-11-08T05:08:43.797Z,98279.56
2023-11-08T05:11:10.477Z,98286.59
2023-11-08T05:13:39.709Z,98280.44
2023-11-08T05:16:06.426Z,98296.25
2023-11-08T05:18:33.380Z,98290.97
2023-11-08T05:20:59.926Z,98293.63
2023-11-08T05:23:26.437Z,98296.25
2023-11-08T05:25:53.091Z,98289.22
2023-11-08T05:28:20.101Z,98297.09
2023-11-08T05:30:47.033Z,98290.97
2023-11-08T05:33:13.691Z,98283.03
2023-11-08T05:35:40.461Z,98283.91
2023-11-08T05:38:07.046Z,98293.59
2023-11-08T05:40:35.596Z,98284.81
2023-11-08T05:43:02.311Z,98296.22
2023-11-08T05:45:29.113Z,98291.81
2023-11-08T05:47:55.693Z,98295.34
2023-11-08T05:50:22.238Z,98290.94
2023-11-08T05:52:48.801Z,98305.03
2023-11-08T05:55:15.439Z,98298.88
2023-11-08T05:57:42.042Z,98301.50
2023-11-08T06:00:10.361Z,98297.97
2023-11-08T06:02:37.256Z,98298.00
2023-11-08T06:05:07.064Z,98307.66
2023-11-08T06:07:33.713Z,98319.09
2023-11-08T06:10:01.703Z,98317.31
2023-11-08T06:12:29.060Z,98327.88
2023-11-08T06:14:55.852Z,98327.00
2023-11-08T06:17:22.522Z,98327.88
2023-11-08T06:19:54.208Z,98338.41
2023-11-08T06:22:23.561Z,98334.03
2023-11-08T06:24:50.176Z,98340.16
2023-11-08T06:27:16.717Z,98334.00
2023-11-08T06:29:43.239Z,98329.63
2023-11-08T06:32:09.771Z,98341.03
2023-11-08T06:34:39.650Z,98344.53
2023-11-08T06:37:09.200Z,98351.56
2023-11-08T06:39:38.813Z,98350.72
2023-11-08T06:42:05.833Z,98352.47
2023-11-08T06:44:32.915Z,98360.34
2023-11-08T06:46:59.412Z,98370.94
2023-11-08T06:49:26.022Z,98365.63
2023-11-08T06:51:52.818Z,98366.50
2023-11-08T06:54:19.432Z,98367.41
2023-11-08T06:56:46.053Z,98368.28
2023-11-08T06:59:12.583Z,98373.53
2023-11-08T07:01:39.198Z,98368.25
2023-11-08T07:04:06.354Z,98368.25
2023-11-08T07:06:33.193Z,98374.41
2023-11-08T07:08:59.835Z,98390.25
2023-11-08T07:11:28.611Z,98385.81
2023-11-08T07:13:55.218Z,98384.94
2023-11-08T07:16:21.981Z,98377.03
2023-11-08T07:18:48.650Z,98382.31
2023-11-08T07:21:21.909Z,98386.75
2023-11-08T07:23:51.377Z,98394.66
2023-11-08T07:26:18.173Z,98399.91
2023-11-08T07:28:45.722Z,98396.38
2023-11-08T07:31:12.931Z,98404.28
2023-11-08T07:33:39.570Z,98403.41
2023-11-08T07:36:06.682Z,98399.91
2023-11-08T07:38:33.977Z,98407.81
2023-11-08T07:41:02.639Z,98404.31
2023-11-08T07:43:30.598Z,98379.69
2023-11-08T07:45:57.328Z,98404.28
2023-11-08T07:48:24.164Z,98408.69
2023-11-08T07:50:52.059Z,98404.28
2023-11-08T07:53:18.700Z,98419.22
2023-11-08T07:55:45.205Z,98414.81
2023-11-08T07:58:11.791Z,98410.41
2023-11-08T08:00:40.461Z,98412.16
2023-11-08T08:03:07.023Z,98410.44
2023-11-08T08:05:33.884Z,98421.88
2023-11-08T08:08:00.478Z,98420.13
2023-11-08T08:10:32.873Z,98419.25
2023-11-08T08:12:59.444Z,98418.34
2023-11-08T08:15:26.037Z,98417.50
2023-11-08T08:17:52.791Z,98423.63
2023-11-08T08:20:19.579Z,98428.91
2023-11-08T08:22:46.267Z,98432.44
2023-11-08T08:25:13.341Z,98431.53
2023-11-08T08:27:44.035Z,98446.50
2023-11-08T08:30:15.918Z,98442.97
2023-11-08T08:32:46.221Z,98446.47
2023-11-08T08:35:13.377Z,98461.38
2023-11-08T08:37:40.017Z,98461.41
2023-11-08T08:40:13.367Z,98450.81
2023-11-08T08:42:41.460Z,98449.09
2023-11-08T08:45:11.776Z,98453.50
2023-11-08T08:47:44.390Z,98450.88
2023-11-08T08:50:13.649Z,98457.00
2023-11-08T08:52:43.468Z,98447.28
2023-11-08T08:55:10.242Z,98460.47
2023-11-08T08:57:36.907Z,98470.03
2023-11-08T09:00:04.497Z,98456.72
2023-11-08T09:02:31.017Z,98466.38
2023-11-08T09:04:57.792Z,98469.00
2023-11-08T09:07:24.275Z,98476.09
2023-11-08T09:09:51.565Z,98471.78
2023-11-08T09:12:18.065Z,98481.53
2023-11-08T09:14:54.119Z,98481.56
2023-11-08T09:17:21.470Z,98483.38
2023-11-08T09:19:49.162Z,98482.47
2023-11-08T09:22:16.980Z,98475.44
2023-11-08T09:24:43.601Z,98483.38
2023-11-08T09:27:10.791Z,98491.31
2023-11-08T09:29:37.568Z,98486.91
2023-11-08T09:32:05.215Z,98486.91
2023-11-08T09:34:35.548Z,98480.75
2023-11-08T09:37:02.416Z,98485.97
2023-11-08T09:39:30.478Z,98483.25
2023-11-08T09:41:57.803Z,98483.22
2023-11-08T09:44:28.618Z,98484.91
2023-11-08T09:46:56.960Z,98485.69
2023-11-08T09:49:26.458Z,98483.03
2023-11-08T09:51:55.022Z,98474.31
2023-11-08T09:54:21.793Z,98468.06
2023-11-08T09:56:48.514Z,98468.00
2023-11-08T09:59:16.603Z,98460.94
2023-11-08T10:01:45.846Z,98466.31
2023-11-08T10:04:22.131Z,98469.75
2023-11-08T10:06:50.777Z,98463.47
2023-11-08T10:09:24.338Z,98471.31
2023-11-08T10:11:51.057Z,98463.47
2023-11-08T10:14:35.769Z,98464.34
2023-11-08T10:17:04.634Z,98475.78
2023-11-08T10:19:44.734Z,98472.28
2023-11-08T10:22:22.299Z,98472.25
2023-11-08T10:24:57.307Z,98470.50
2023-11-08T10:27:28.540Z,98481.19
2023-11-08T10:30:12.356Z,98484.75
2023-11-08T10:32:38.879Z,98475.09
2023-11-08T10:35:23.611Z,98478.69
2023-11-08T10:37:51.195Z,98474.28
2023-11-08T10:40:18.716Z,98468.09
2023-11-08T10:42:53.968Z,98478.63
2023-11-08T10:45:21.901Z,98481.19
2023-11-08T10:47:49.272Z,98471.44
2023-11-08T10:50:17.301Z,98466.97
2023-11-08T10:52:44.890Z,98474.13
2023-11-08T10:55:13.062Z,98467.16
2023-11-08T10:57:43.132Z,98469.78
2023-11-08T11:00:10.223Z,98469.78
2023-11-08T11:02:43.575Z,98481.22
2023-11-08T11:05:11.401Z,98468.00
2023-11-08T11:07:42.946Z,98459.19
2023-11-08T11:10:11.096Z,98468.00
2023-11-08T11:12:46.390Z,98464.50
2023-11-08T11:15:20.072Z,98464.50
2023-11-08T11:17:54.187Z,98460.03
2023-11-08T11:20:23.309Z,98465.25
2023-11-08T11:22:49.974Z,98452.81
2023-11-08T11:25:48.613Z,98458.97
2023-11-08T11:28:15.920Z,98453.63
2023-11-08T11:30:43.245Z,98451.81
2023-11-08T11:33:09.809Z,98445.53
2023-11-08T11:35:36.340Z,98443.81
2023-11-08T11:38:08.935Z,98441.19
2023-11-08T11:40:36.840Z,98448.25
2023-11-08T11:43:03.548Z,98436.84
2023-11-08T11:45:33.231Z,98431.53
2023-11-08T11:48:00.941Z,98430.53
2023-11-08T11:50:28.448Z,98441.03
2023-11-08T11:52:55.061Z,98435.72
2023-11-08T11:55:21.735Z,98439.22
2023-11-08T11:57:48.312Z,98439.16
2023-11-08T12:00:15.979Z,98427.66
2023-11-08T12:02:42.971Z,98437.38
2023-11-08T12:05:09.876Z,98431.38
2023-11-08T12:07:38.591Z,98441.97
2023-11-08T12:10:08.674Z,98427.78
2023-11-08T12:12:36.006Z,98425.13
2023-11-08T12:15:21.921Z,98419.09
2023-11-08T12:17:50.077Z,98428.09
2023-11-08T12:20:17.103Z,98430.84
2023-11-08T12:22:48.989Z,98416.78
2023-11-08T12:25:18.210Z,98436.16
2023-11-08T12:27:44.784Z,98441.34
2023-11-08T12:30:11.938Z,98437.75
2023-11-08T12:32:38.689Z,98426.25
2023-11-08T12:35:05.789Z,98427.09
2023-11-08T12:37:32.521Z,98439.38
2023-11-08T12:40:19.598Z,98430.47
2023-11-08T12:42:46.434Z,98429.53
2023-11-08T12:46:33.656Z,98424.25
2023-11-08T12:48:15.598Z,98426.91
2023-11-08T12:51:09.598Z,98427.81
2023-11-08T12:53:43.262Z,98428.00
2023-11-08T12:56:09.758Z,98395.31
2023-11-08T12:58:36.401Z,98431.47
2023-11-08T13:01:04.353Z,98427.06
2023-11-08T13:03:37.084Z,98419.09
2023-11-08T13:06:04.109Z,98407.59
2023-11-08T13:08:30.839Z,98425.28
2023-11-08T13:11:00.772Z,98419.06
2023-11-08T13:13:27.359Z,98413.81
2023-11-08T13:15:54.027Z,98416.53
2023-11-08T13:18:21.316Z,98415.72
2023-11-08T13:20:48.709Z,98409.59
2023-11-08T13:23:58.019Z,98419.34
2023-11-08T13:26:03.158Z,98426.41
2023-11-08T13:28:29.885Z,98414.06
2023-11-08T13:30:56.629Z,98412.31
2023-11-08T13:33:25.694Z,98409.69
2023-11-08T13:35:54.225Z,98412.41
2023-11-08T13:38:20.733Z,98412.41
2023-11-08T13:40:47.206Z,98409.78
2023-11-08T13:43:13.770Z,98395.66
2023-11-08T13:45:40.382Z,98386.00
2023-11-08T13:48:07.017Z,98403.63
2023-11-08T13:50:33.581Z,98407.16
2023-11-08T13:53:00.127Z,98408.03
2023-11-08T13:55:26.610Z,98400.13
2023-11-08T13:57:53.184Z,98400.16
2023-11-08T14:00:21.216Z,98401.06
2023-11-08T14:02:49.559Z,98413.38
2023-11-08T14:05:19.048Z,98410.75
2023-11-08T14:07:45.846Z,98395.81
2023-11-08T14:10:12.388Z,98395.81
2023-11-08T14:12:39.352Z,98404.63
2023-11-08T14:15:06.739Z,98401.13
2023-11-08T14:17:33.382Z,98402.88
2023-11-08T14:20:00.357Z,98392.31
2023-11-08T14:22:27.424Z,98399.34
2023-11-08T14:24:54.047Z,98387.00
2023-11-08T14:27:20.794Z,98399.31
2023-11-08T14:29:47.389Z,98394.91
2023-11-08T14:32:13.872Z,98389.63
2023-11-08T14:34:42.769Z,98399.34
2023-11-08T14:37:09.746Z,98391.47
2023-11-08T14:39:37.511Z,98400.28
2023-11-08T14:42:04.569Z,98399.41
2023-11-08T14:44:31.578Z,98392.38
2023-11-08T14:46:58.352Z,98403.84
2023-11-08T14:49:27.251Z,98399.44
2023-11-08T14:51:54.418Z,98392.38
2023-11-08T14:54:21.553Z,98388.88
2023-11-08T14:56:49.951Z,98387.16
2023-11-08T14:59:17.142Z,98385.38
2023-11-08T15:01:43.685Z,98386.28
2023-11-08T15:04:11.198Z,98374.84
2023-11-08T15:06:39.208Z,98373.09
2023-11-08T15:09:52.043Z,98386.31
2023-11-08T15:11:53.453Z,98388.97
2023-11-08T15:14:20.856Z,98381.94
2023-11-08T15:16:47.948Z,98375.78
2023-11-08T15:19:14.593Z,98374.03
2023-11-08T15:21:43.394Z,98370.53
2023-11-08T15:24:11.273Z,98363.50
2023-11-08T15:26:38.753Z,98374.97
2023-11-08T15:29:09.570Z,98373.22
2023-11-08T15:31:36.088Z,98362.63
2023-11-08T15:34:02.643Z,98363.53
2023-11-08T15:36:29.287Z,98370.59
2023-11-08T15:38:55.836Z,98369.69
2023-11-08T15:41:25.492Z,98361.78
2023-11-08T15:43:53.465Z,98367.09
2023-11-08T15:46:21.445Z,98358.28
2023-11-08T15:48:51.920Z,98355.66
2023-11-08T15:51:19.740Z,98353.00
2023-11-08T15:53:46.878Z,98352.16
2023-11-08T15:56:14.219Z,98353.91
2023-11-08T15:58:41.596Z,98351.25
2023-11-08T16:01:08.094Z,98338.97
2023-11-08T16:03:34.941Z,98343.38
2023-11-08T16:06:01.657Z,98345.13
2023-11-08T16:08:28.522Z,98346.94
2023-11-08T16:10:55.824Z,98346.91
2023-11-08T16:13:25.308Z,98332.84
2023-11-08T16:15:53.660Z,98344.28
2023-11-08T16:18:20.363Z,98326.66
2023-11-08T16:20:49.122Z,98332.81
2023-11-08T16:23:15.822Z,98326.69
2023-11-08T16:25:42.371Z,98322.31
2023-11-08T16:28:08.957Z,98322.31
2023-11-08T16:31:00.247Z,98328.47
2023-11-08T16:33:22.536Z,98331.09
2023-11-08T16:35:49.178Z,98332.81
2023-11-08T16:38:15.702Z,98322.31
2023-11-08T16:40:42.539Z,98318.78
2023-11-08T16:43:09.019Z,98320.53
2023-11-08T16:45:36.716Z,98314.38
2023-11-08T16:48:03.352Z,98317.94
2023-11-08T16:50:29.959Z,98313.56
2023-11-08T16:52:57.524Z,98311.81
2023-11-08T16:55:24.499Z,98310.94
2023-11-08T16:57:51.064Z,98308.31
2023-11-08T17:00:21.692Z,98305.66
2023-11-08T17:02:48.447Z,98310.06
2023-11-08T17:05:15.276Z,98318.84
2023-11-08T17:07:43.728Z,98303.00
2023-11-08T17:10:13.769Z,98323.22
2023-11-08T17:12:40.492Z,98319.72
2023-11-08T17:15:09.012Z,98311.81
2023-11-08T17:17:35.810Z,98295.97
2023-11-08T17:20:02.356Z,98290.69
2023-11-08T17:22:28.877Z,98310.94
2023-11-08T17:24:55.465Z,98304.78
2023-11-08T17:27:22.170Z,98301.28
2023-11-08T17:29:48.690Z,98297.78
2023-11-08T17:32:15.196Z,98280.16
2023-11-08T17:34:41.766Z,98303.03
2023-11-08T17:37:08.493Z,98277.53
2023-11-08T17:39:35.000Z,98273.16
2023-11-08T17:42:01.542Z,98282.81
2023-11-08T17:44:29.678Z,98271.34
2023-11-08T17:46:56.209Z,98288.06
2023-11-08T17:49:22.754Z,98286.31
2023-11-08T17:51:49.315Z,98278.41
2023-11-08T17:54:15.940Z,98280.16
2023-11-08T17:56:46.217Z,98283.69
2023-11-08T17:59:13.015Z,98274.88
2023-11-08T18:01:40.092Z,98270.47
2023-11-08T18:04:06.845Z,98266.06
2023-11-08T18:06:33.553Z,98252.88
2023-11-08T18:09:00.327Z,98268.69
2023-11-08T18:11:26.922Z,98259.03
2023-11-08T18:13:53.468Z,98251.97
2023-11-08T18:16:20.079Z,98246.72
2023-11-08T18:18:46.711Z,98251.09
2023-11-08T18:21:13.685Z,98252.00
2023-11-08T18:23:40.434Z,98237.00
2023-11-08T18:26:07.007Z,98246.69
2023-11-08T18:28:34.019Z,98259.03
2023-11-08T18:31:00.767Z,98254.63
2023-11-08T18:33:27.658Z,98236.16
2023-11-08T18:35:54.256Z,98248.47
2023-11-08T18:38:20.837Z,98249.34
2023-11-08T18:40:47.955Z,98239.72
2023-11-08T18:43:15.212Z,98241.47
2023-11-08T18:45:41.897Z,98241.47
2023-11-08T18:48:08.435Z,98241.47
2023-11-08T18:50:34.961Z,98234.44
2023-11-08T18:53:01.869Z,98214.22
2023-11-08T18:55:29.975Z,98229.16
2023-11-08T18:57:56.527Z,98217.72
2023-11-08T19:00:24.283Z,98220.34
2023-11-08T19:02:52.713Z,98218.59
2023-11-08T19:05:23.175Z,98223.88
2023-11-08T19:07:50.819Z,98215.06
2023-11-08T19:10:18.290Z,98203.63
2023-11-08T19:12:46.959Z,98214.16
2023-11-08T19:15:14.356Z,98208.84
2023-11-08T19:17:41.780Z,98208.00
2023-11-08T19:20:10.757Z,98188.63
2023-11-08T19:22:38.178Z,98199.22
2023-11-08T19:25:08.099Z,98196.53
2023-11-08T19:27:40.654Z,98178.06
2023-11-08T19:30:09.852Z,98166.63
2023-11-08T19:32:37.422Z,98185.06
2023-11-08T19:35:10.025Z,98174.53
2023-11-08T19:37:37.497Z,98168.34
2023-11-08T19:40:07.002Z,98170.09
2023-11-08T19:42:33.496Z,98164.81
2023-11-08T19:45:00.994Z,98170.09
2023-11-08T19:47:27.942Z,98170.09
2023-11-08T19:49:54.578Z,98155.13
2023-11-08T19:52:22.674Z,98178.00
2023-11-08T19:54:50.384Z,98157.75
2023-11-08T19:57:16.963Z,98146.31
2023-11-08T19:59:43.992Z,98157.75
2023-11-08T20:02:10.584Z,98150.72
2023-11-08T20:04:37.091Z,98134.88
2023-11-08T20:07:04.748Z,98142.81
2023-11-08T20:09:34.660Z,98113.75
2023-11-08T20:12:01.637Z,98118.16
2023-11-08T20:14:28.182Z,98111.97
2023-11-08T20:16:56.009Z,98118.06
2023-11-08T20:19:25.784Z,98118.06
2023-11-08T20:21:52.552Z,98111.91
2023-11-08T20:24:19.084Z,98104.00
2023-11-08T20:26:45.983Z,98103.16
2023-11-08T20:29:12.534Z,98095.25
2023-11-08T20:31:40.162Z,98105.81
2023-11-08T20:34:06.850Z,98090.84
2023-11-08T20:36:33.430Z,98105.78
2023-11-08T20:38:59.909Z,98089.09
2023-11-08T20:41:26.449Z,98098.75
2023-11-08T20:43:53.578Z,98088.16
2023-11-08T20:46:20.136Z,98084.63
2023-11-08T20:48:47.709Z,98096.09
2023-11-08T20:51:14.362Z,98080.25
2023-11-08T20:53:43.259Z,98091.66
2023-11-08T20:56:11.254Z,98064.38
2023-11-08T20:58:39.748Z,98074.03
2023-11-08T21:01:06.397Z,98079.31
2023-11-08T21:03:33.209Z,98068.75
2023-11-08T21:06:00.051Z,98067.84
2023-11-08T21:08:26.559Z,98061.63
2023-11-08T21:10:53.835Z,98075.75
2023-11-08T21:13:20.433Z,98040.50
2023-11-08T21:15:49.118Z,98072.19
2023-11-08T21:18:19.174Z,98047.53
2023-11-08T21:20:48.621Z,98039.63
2023-11-08T21:23:15.186Z,98041.41
2023-11-08T21:25:41.692Z,98050.25
2023-11-08T21:28:08.215Z,98056.44
2023-11-08T21:30:34.889Z,98031.75
2023-11-08T21:33:01.398Z,98035.31
2023-11-08T21:35:30.182Z,98027.41
2023-11-08T21:37:57.738Z,98020.31
2023-11-08T21:40:24.333Z,98005.28
2023-11-08T21:42:52.205Z,97955.97
2023-11-08T21:45:19.238Z,97986.78
2023-11-08T21:47:46.210Z,98000.84
2023-11-08T21:50:13.477Z,98012.28
2023-11-08T21:52:40.130Z,97997.34
2023-11-08T21:55:07.498Z,98001.75
2023-11-08T21:57:34.105Z,97990.31
2023-11-08T22:00:00.712Z,97963.94
2023-11-08T22:02:27.324Z,97962.13
2023-11-08T22:04:53.938Z,97971.81
2023-11-08T22:07:20.542Z,97956.84
2023-11-08T22:09:47.090Z,97957.72
2023-11-08T22:12:13.632Z,97939.22
2023-11-08T22:14:40.230Z,97928.63
2023-11-08T22:17:07.991Z,97937.47
2023-11-08T22:19:34.863Z,97949.81
2023-11-08T22:22:01.607Z,97938.44
2023-11-08T22:24:28.934Z,97934.03
2023-11-08T22:26:55.485Z,97944.59
2023-11-08T22:29:22.397Z,97928.75
2023-11-08T22:31:48.934Z,97923.53
2023-11-08T22:34:15.493Z,97908.63
2023-11-08T22:36:42.029Z,97949.16
2023-11-08T22:39:08.648Z,97935.13
2023-11-08T22:41:36.063Z,97942.19
2023-11-08T22:44:02.587Z,97928.13
2023-11-08T22:46:32.488Z,97928.94
2023-11-08T22:48:59.502Z,97926.25
2023-11-08T22:51:26.098Z,97926.25
2023-11-08T22:53:54.309Z,97926.19
2023-11-08T22:56:21.278Z,97926.22
2023-11-08T22:58:48.590Z,97920.94
2023-11-08T23:01:27.817Z,97934.97
2023-11-08T23:03:54.536Z,97916.53
2023-11-08T23:06:23.394Z,97906.78
2023-11-08T23:08:49.964Z,97920.88
2023-11-08T23:11:16.691Z,97894.53
2023-11-08T23:13:44.237Z,97913.91
2023-11-08T23:16:11.331Z,97895.44
2023-11-08T23:18:37.995Z,97891.97
2023-11-08T23:21:06.053Z,97906.94
2023-11-08T23:23:37.535Z,97902.53
2023-11-08T23:26:05.054Z,97900.78
2023-11-08T23:28:31.549Z,97909.56
2023-11-08T23:30:58.205Z,97884.13
2023-11-08T23:33:24.826Z,97884.97
2023-11-08T23:35:51.406Z,97887.59
2023-11-08T23:38:18.009Z,97901.66
2023-11-08T23:40:44.491Z,97893.66
2023-11-08T23:43:11.005Z,97905.09
2023-11-08T23:45:37.523Z,97881.34
2023-11-08T23:48:09.714Z,97884.03
2023-11-08T23:50:36.942Z,97869.94
2023-11-08T23:53:03.462Z,97876.16
2023-11-08T23:55:30.006Z,97877.94
2023-11-08T23:57:56.722Z,97878.84
